createdAt,value
2023-04-27T00:01:00.786Z,92.82
2023-04-27T00:03:28.500Z,93.04
2023-04-27T00:05:55.382Z,93.75
2023-04-27T00:08:22.084Z,93.72
2023-04-27T00:10:48.564Z,93.40
2023-04-27T00:13:15.025Z,93.30
2023-04-27T00:15:41.704Z,93.27
2023-04-27T00:18:08.377Z,93.36
2023-04-27T00:20:34.911Z,93.37
2023-04-27T00:23:01.430Z,93.18
2023-04-27T00:25:28.009Z,93.24
2023-04-27T00:27:54.528Z,93.40
2023-04-27T00:30:21.159Z,93.30
2023-04-27T00:32:47.807Z,93.19
2023-04-27T00:35:14.465Z,93.68
2023-04-27T00:37:41.340Z,93.41
2023-04-27T00:40:08.586Z,93.21
2023-04-27T00:42:35.795Z,93.38
2023-04-27T00:45:03.307Z,93.82
2023-04-27T00:47:30.546Z,94.27
2023-04-27T00:49:57.170Z,94.23
2023-04-27T00:52:23.671Z,94.05
2023-04-27T00:54:51.892Z,93.93
2023-04-27T00:57:18.883Z,94.01
2023-04-27T00:59:46.141Z,93.60
2023-04-27T01:02:13.706Z,93.36
2023-04-27T01:04:41.038Z,93.38
2023-04-27T01:07:08.076Z,93.78
2023-04-27T01:09:34.650Z,94.02
2023-04-27T01:12:01.287Z,93.87
2023-04-27T01:14:27.771Z,94.06
2023-04-27T01:16:54.278Z,93.93
2023-04-27T01:19:20.794Z,94.10
2023-04-27T01:21:47.288Z,94.34
2023-04-27T01:24:13.804Z,94.49
2023-04-27T01:26:40.556Z,95.04
2023-04-27T01:29:07.143Z,94.84
2023-04-27T01:31:33.702Z,95.05
2023-04-27T01:34:00.231Z,95.22
2023-04-27T01:36:27.691Z,95.24
2023-04-27T01:38:54.232Z,95.58
2023-04-27T01:41:20.854Z,95.69
2023-04-27T01:43:47.395Z,95.18
2023-04-27T01:46:14.815Z,95.26
2023-04-27T01:48:42.683Z,95.18
2023-04-27T01:51:09.180Z,95.17
2023-04-27T01:53:35.651Z,95.06
2023-04-27T01:56:02.155Z,94.86
2023-04-27T01:58:28.648Z,94.72
2023-04-27T02:00:55.262Z,94.79
2023-04-27T02:03:22.299Z,95.05
2023-04-27T02:05:49.055Z,95.03
2023-04-27T02:08:15.604Z,95.27
2023-04-27T02:10:42.240Z,95.43
2023-04-27T02:13:09.797Z,95.03
2023-04-27T02:15:36.601Z,95.33
2023-04-27T02:18:03.866Z,95.00
2023-04-27T02:20:33.651Z,95.19
2023-04-27T02:23:01.014Z,95.37
2023-04-27T02:25:27.902Z,95.24
2023-04-27T02:27:55.087Z,95.62
2023-04-27T02:30:22.501Z,95.41
2023-04-27T02:32:49.888Z,95.16
2023-04-27T02:35:16.542Z,95.41
2023-04-27T02:37:43.021Z,95.43
2023-04-27T02:40:10.322Z,95.24
2023-04-27T02:42:38.872Z,95.09
2023-04-27T02:45:07.502Z,95.05
2023-04-27T02:47:34.403Z,94.89
2023-04-27T02:50:01.660Z,94.62
2023-04-27T02:52:28.152Z,95.07
2023-04-27T02:54:54.664Z,94.56
2023-04-27T02:57:21.308Z,94.04
2023-04-27T02:59:47.792Z,94.29
2023-04-27T03:02:14.574Z,94.51
2023-04-27T03:04:41.218Z,94.53
2023-04-27T03:07:07.721Z,94.60
2023-04-27T03:09:34.256Z,94.38
2023-04-27T03:12:01.274Z,94.41
2023-04-27T03:14:27.769Z,94.71
2023-04-27T03:16:56.165Z,94.49
2023-04-27T03:19:23.099Z,94.53
2023-04-27T03:21:49.549Z,94.60
2023-04-27T03:24:16.569Z,94.94
2023-04-27T03:26:43.020Z,94.72
2023-04-27T03:29:10.000Z,94.71
2023-04-27T03:31:36.566Z,95.03
2023-04-27T03:34:03.292Z,94.74
2023-04-27T03:36:29.842Z,94.43
2023-04-27T03:38:56.288Z,94.36
2023-04-27T03:41:22.766Z,94.62
2023-04-27T03:43:50.816Z,94.80
2023-04-27T03:46:17.369Z,94.82
2023-04-27T03:48:44.011Z,94.54
2023-04-27T03:51:10.532Z,94.81
2023-04-27T03:53:37.015Z,94.92
2023-04-27T03:56:03.800Z,94.83
2023-04-27T03:58:30.779Z,94.95
2023-04-27T04:00:57.318Z,94.62
2023-04-27T04:03:23.984Z,94.88
2023-04-27T04:05:50.580Z,94.78
2023-04-27T04:08:17.064Z,95.13
2023-04-27T04:10:43.503Z,95.34
2023-04-27T04:13:09.956Z,95.21
2023-04-27T04:15:36.486Z,95.33
2023-04-27T04:18:03.137Z,95.71
2023-04-27T04:20:29.628Z,95.64
2023-04-27T04:22:56.147Z,95.47
2023-04-27T04:25:22.612Z,95.34
2023-04-27T04:27:49.131Z,95.43
2023-04-27T04:30:15.894Z,95.66
2023-04-27T04:32:42.413Z,95.04
2023-04-27T04:35:09.305Z,95.32
2023-04-27T04:37:36.404Z,95.29
2023-04-27T04:40:10.519Z,94.99
2023-04-27T04:42:37.973Z,95.29
2023-04-27T04:45:05.281Z,95.40
2023-04-27T04:47:32.280Z,95.29
2023-04-27T04:49:58.979Z,95.16
2023-04-27T04:52:25.456Z,95.19
2023-04-27T04:54:53.092Z,95.42
2023-04-27T04:57:19.717Z,95.13
2023-04-27T04:59:46.164Z,94.57
2023-04-27T05:02:12.692Z,94.07
2023-04-27T05:04:39.208Z,94.02
2023-04-27T05:07:06.715Z,94.39
2023-04-27T05:09:33.314Z,93.10
2023-04-27T05:12:01.805Z,92.20
2023-04-27T05:14:28.337Z,92.07
2023-04-27T05:16:54.792Z,92.72
2023-04-27T05:19:21.531Z,92.47
2023-04-27T05:21:48.377Z,93.14
2023-04-27T05:24:14.838Z,92.70
2023-04-27T05:26:43.232Z,92.58
2023-04-27T05:29:09.688Z,92.48
2023-04-27T05:31:36.253Z,92.00
2023-04-27T05:34:02.835Z,92.17
2023-04-27T05:36:29.604Z,92.56
2023-04-27T05:38:56.527Z,93.02
2023-04-27T05:41:23.803Z,93.09
2023-04-27T05:43:50.375Z,92.69
2023-04-27T05:46:16.994Z,92.19
2023-04-27T05:48:43.569Z,92.03
2023-04-27T05:51:10.038Z,92.02
2023-04-27T05:53:36.593Z,90.04
2023-04-27T05:56:04.628Z,86.72
2023-04-27T05:58:31.356Z,84.84
2023-04-27T06:00:57.921Z,83.63
2023-04-27T06:03:24.860Z,85.91
2023-04-27T06:05:59.615Z,86.28
2023-04-27T06:08:27.502Z,84.24
2023-04-27T06:10:54.423Z,83.35
2023-04-27T06:13:21.776Z,83.37
2023-04-27T06:15:48.331Z,85.37
2023-04-27T06:18:14.900Z,82.21
2023-04-27T06:20:42.870Z,83.09
2023-04-27T06:23:09.351Z,82.98
2023-04-27T06:25:37.519Z,83.62
2023-04-27T06:28:04.160Z,82.35
2023-04-27T06:30:30.635Z,80.15
2023-04-27T06:32:57.148Z,81.72
2023-04-27T06:35:23.654Z,82.81
2023-04-27T06:37:50.145Z,82.22
2023-04-27T06:40:16.794Z,81.22
2023-04-27T06:42:43.332Z,80.89
2023-04-27T06:45:10.267Z,81.80
2023-04-27T06:47:36.764Z,81.26
2023-04-27T06:50:04.076Z,81.31
2023-04-27T06:52:33.160Z,81.21
2023-04-27T06:54:59.715Z,80.21
2023-04-27T06:57:26.406Z,79.77
2023-04-27T06:59:52.848Z,79.19
2023-04-27T07:02:19.518Z,79.07
2023-04-27T07:04:46.528Z,79.79
2023-04-27T07:07:13.366Z,77.27
2023-04-27T07:09:39.844Z,74.26
2023-04-27T07:12:06.609Z,73.77
2023-04-27T07:14:33.901Z,73.97
2023-04-27T07:17:00.435Z,74.15
2023-04-27T07:19:26.957Z,71.94
2023-04-27T07:21:53.571Z,71.04
2023-04-27T07:24:20.628Z,70.60
2023-04-27T07:26:48.142Z,71.60
2023-04-27T07:29:26.350Z,71.70
2023-04-27T07:31:55.696Z,69.31
2023-04-27T07:34:22.690Z,68.34
2023-04-27T07:36:49.341Z,67.95
2023-04-27T07:39:15.950Z,66.41
2023-04-27T07:41:42.911Z,67.81
2023-04-27T07:44:09.369Z,66.45
2023-04-27T07:46:35.975Z,65.70
2023-04-27T07:49:02.491Z,66.05
2023-04-27T07:51:29.283Z,65.82
2023-04-27T07:53:56.391Z,67.54
2023-04-27T07:56:22.950Z,65.69
2023-04-27T07:58:49.412Z,65.57
2023-04-27T08:01:17.188Z,63.63
2023-04-27T08:03:44.749Z,64.45
2023-04-27T08:06:12.218Z,65.04
2023-04-27T08:08:39.008Z,64.55
2023-04-27T08:11:08.844Z,65.15
2023-04-27T08:13:35.342Z,65.33
2023-04-27T08:16:01.905Z,63.48
2023-04-27T08:18:28.579Z,65.36
2023-04-27T08:20:55.544Z,64.12
2023-04-27T08:23:22.055Z,63.65
2023-04-27T08:25:48.631Z,62.85
2023-04-27T08:28:15.416Z,62.34
2023-04-27T08:30:42.604Z,62.15
2023-04-27T08:33:09.166Z,63.19
2023-04-27T08:35:35.733Z,60.77
2023-04-27T08:38:02.244Z,61.57
2023-04-27T08:40:28.921Z,60.54
2023-04-27T08:43:00.706Z,61.18
2023-04-27T08:45:28.104Z,59.79
2023-04-27T08:47:54.832Z,59.91
2023-04-27T08:50:24.128Z,59.50
2023-04-27T08:52:52.056Z,57.77
2023-04-27T08:55:18.882Z,55.97
2023-04-27T08:57:56.154Z,56.98
2023-04-27T09:00:24.379Z,55.02
2023-04-27T09:02:51.063Z,56.27
2023-04-27T09:05:19.120Z,57.00
2023-04-27T09:08:08.063Z,59.63
2023-04-27T09:10:45.241Z,54.87
2023-04-27T09:13:11.778Z,52.07
2023-04-27T09:15:49.926Z,54.59
2023-04-27T09:18:17.503Z,56.78
2023-04-27T09:20:51.950Z,57.74
2023-04-27T09:23:35.609Z,56.69
2023-04-27T09:26:09.588Z,54.11
2023-04-27T09:28:39.428Z,54.58
2023-04-27T09:31:09.007Z,56.89
2023-04-27T09:33:36.132Z,55.91
2023-04-27T09:36:05.256Z,55.22
2023-04-27T09:38:31.964Z,56.23
2023-04-27T09:40:59.999Z,57.36
2023-04-27T09:43:28.608Z,54.13
2023-04-27T09:45:56.016Z,54.45
2023-04-27T09:48:24.118Z,56.55
2023-04-27T09:50:52.251Z,54.24
2023-04-27T09:53:23.371Z,53.19
2023-04-27T09:55:51.571Z,53.74
2023-04-27T09:58:56.148Z,56.04
2023-04-27T10:01:56.806Z,55.81
2023-04-27T10:04:57.572Z,53.88
2023-04-27T10:07:27.926Z,54.09
2023-04-27T10:18:53.288Z,51.69
2023-04-27T10:21:20.431Z,50.26
2023-04-27T10:23:48.862Z,50.32
2023-04-27T10:26:25.580Z,50.80
2023-04-27T10:29:09.206Z,51.13
2023-04-27T10:31:36.109Z,50.17
2023-04-27T10:34:12.255Z,49.93
2023-04-27T10:36:41.074Z,47.96
2023-04-27T10:39:27.646Z,50.59
2023-04-27T10:41:59.982Z,48.20
2023-04-27T10:44:29.026Z,51.10
2023-04-27T10:46:57.697Z,52.74
2023-04-27T10:49:24.526Z,49.09
2023-04-27T10:51:51.535Z,51.24
2023-04-27T10:54:19.086Z,48.23
2023-04-27T10:56:48.315Z,52.10
2023-04-27T10:59:15.149Z,48.91
2023-04-27T11:01:42.387Z,49.50
2023-04-27T11:04:09.106Z,50.37
2023-04-27T11:06:43.037Z,48.39
2023-04-27T11:09:14.753Z,47.96
2023-04-27T11:11:45.735Z,48.62
2023-04-27T11:14:16.903Z,48.73
2023-04-27T11:16:49.968Z,49.46
2023-04-27T11:19:16.896Z,49.62
2023-04-27T11:21:44.379Z,48.58
2023-04-27T11:24:12.153Z,46.92
2023-04-27T11:26:40.641Z,48.66
2023-04-27T11:29:18.209Z,47.23
2023-04-27T11:31:49.457Z,45.86
2023-04-27T11:34:17.463Z,47.79
2023-04-27T11:36:44.623Z,47.07
2023-04-27T11:39:21.881Z,46.81
2023-04-27T11:41:48.615Z,46.56
2023-04-27T11:44:15.151Z,46.77
2023-04-27T11:46:45.102Z,48.38
2023-04-27T11:49:12.830Z,47.64
2023-04-27T11:51:40.518Z,45.94
2023-04-27T11:54:07.606Z,47.17
2023-04-27T11:56:41.822Z,47.93
2023-04-27T11:59:23.283Z,46.57
2023-04-27T12:01:51.700Z,48.10
2023-04-27T12:04:18.883Z,45.98
2023-04-27T12:06:48.063Z,48.66
2023-04-27T12:09:17.582Z,47.44
2023-04-27T12:11:44.450Z,47.87
2023-04-27T12:14:11.574Z,45.34
2023-04-27T12:16:38.353Z,46.77
2023-04-27T12:19:05.060Z,44.64
2023-04-27T12:21:32.326Z,48.08
2023-04-27T12:23:58.918Z,50.65
2023-04-27T12:26:26.938Z,47.12
2023-04-27T12:28:58.119Z,46.63
2023-04-27T12:31:27.685Z,44.84
2023-04-27T12:33:54.682Z,48.06
2023-04-27T12:36:21.304Z,46.16
2023-04-27T12:38:47.913Z,46.38
2023-04-27T12:41:16.097Z,46.71
2023-04-27T12:43:47.809Z,45.71
2023-04-27T12:46:14.744Z,48.18
2023-04-27T12:48:41.696Z,45.57
2023-04-27T12:51:11.374Z,45.02
2023-04-27T12:53:38.040Z,44.81
2023-04-27T12:56:07.312Z,47.32
2023-04-27T12:58:34.000Z,47.67
2023-04-27T13:01:00.968Z,44.81
2023-04-27T13:03:27.771Z,43.74
2023-04-27T13:05:54.436Z,44.96
2023-04-27T13:08:21.410Z,43.68
2023-04-27T13:10:48.015Z,44.93
2023-04-27T13:13:17.253Z,45.65
2023-04-27T13:15:43.902Z,43.55
2023-04-27T13:18:10.654Z,44.30
2023-04-27T13:20:37.856Z,44.48
2023-04-27T13:23:04.854Z,44.82
2023-04-27T13:25:31.421Z,44.15
2023-04-27T13:27:58.122Z,46.40
2023-04-27T13:30:24.651Z,44.32
2023-04-27T13:32:52.493Z,45.44
2023-04-27T13:35:19.780Z,43.49
2023-04-27T13:37:48.123Z,45.15
2023-04-27T13:40:14.766Z,43.86
2023-04-27T13:42:41.617Z,44.27
2023-04-27T13:45:08.601Z,44.17
2023-04-27T13:47:37.159Z,42.62
2023-04-27T13:50:06.298Z,43.16
2023-04-27T13:52:32.990Z,45.82
2023-04-27T13:54:59.546Z,45.55
2023-04-27T13:57:26.240Z,48.58
2023-04-27T13:59:53.085Z,48.39
2023-04-27T14:02:20.108Z,46.94
2023-04-27T14:04:46.866Z,45.32
2023-04-27T14:07:13.443Z,44.06
2023-04-27T14:09:39.904Z,42.85
2023-04-27T14:12:06.387Z,43.91
2023-04-27T14:14:32.885Z,42.05
2023-04-27T14:16:59.440Z,44.19
2023-04-27T14:19:27.315Z,45.29
2023-04-27T14:21:53.832Z,45.41
2023-04-27T14:24:20.629Z,41.41
2023-04-27T14:26:48.807Z,42.15
2023-04-27T14:29:15.872Z,43.29
2023-04-27T14:31:43.016Z,42.04
2023-04-27T14:34:09.576Z,43.02
2023-04-27T14:36:36.210Z,43.36
2023-04-27T14:39:04.442Z,43.14
2023-04-27T14:41:31.016Z,42.72
2023-04-27T14:43:57.521Z,42.24
2023-04-27T14:46:24.147Z,42.96
2023-04-27T14:48:51.389Z,42.46
2023-04-27T14:51:18.038Z,41.84
2023-04-27T14:53:44.570Z,42.55
2023-04-27T14:56:11.632Z,42.79
2023-04-27T14:58:38.670Z,41.02
2023-04-27T15:01:06.069Z,42.48
2023-04-27T15:03:33.434Z,41.54
2023-04-27T15:06:00.913Z,41.00
2023-04-27T15:08:27.530Z,41.12
2023-04-27T15:10:57.629Z,41.20
2023-04-27T15:13:24.817Z,41.07
2023-04-27T15:15:59.021Z,40.38
2023-04-27T15:18:25.999Z,41.47
2023-04-27T15:20:56.798Z,41.08
2023-04-27T15:23:24.368Z,41.97
2023-04-27T15:25:54.349Z,42.81
2023-04-27T15:28:21.244Z,40.73
2023-04-27T15:30:47.859Z,40.98
2023-04-27T15:33:15.842Z,41.33
2023-04-27T15:35:42.714Z,40.50
2023-04-27T15:38:12.169Z,40.47
2023-04-27T15:40:39.303Z,42.07
2023-04-27T15:43:06.059Z,42.89
2023-04-27T15:45:32.962Z,41.66
2023-04-27T15:47:59.633Z,40.29
2023-04-27T15:50:26.327Z,41.24
2023-04-27T15:52:52.987Z,42.60
2023-04-27T15:55:19.650Z,41.41
2023-04-27T15:57:46.206Z,41.11
2023-04-27T16:00:15.186Z,41.81
2023-04-27T16:02:42.050Z,42.00
2023-04-27T16:05:09.718Z,40.81
2023-04-27T16:07:37.356Z,41.03
2023-04-27T16:10:04.264Z,40.98
2023-04-27T16:12:31.000Z,41.80
2023-04-27T16:14:57.728Z,42.33
2023-04-27T16:17:25.453Z,42.46
2023-04-27T16:19:51.978Z,42.45
2023-04-27T16:22:18.669Z,43.36
2023-04-27T16:24:45.351Z,43.50
2023-04-27T16:27:12.113Z,44.18
2023-04-27T16:29:38.791Z,42.50
2023-04-27T16:32:05.950Z,42.18
2023-04-27T16:34:32.594Z,41.92
2023-04-27T16:36:59.104Z,43.81
2023-04-27T16:39:25.760Z,43.03
2023-04-27T16:41:52.513Z,42.74
2023-04-27T16:44:18.972Z,43.12
2023-04-27T16:46:45.838Z,43.46
2023-04-27T16:49:12.663Z,43.50
2023-04-27T16:51:39.429Z,43.78
2023-04-27T16:54:06.035Z,43.26
2023-04-27T16:56:35.012Z,43.16
2023-04-27T16:59:04.994Z,44.13
2023-04-27T17:01:31.554Z,42.79
2023-04-27T17:03:59.613Z,43.71
2023-04-27T17:06:27.837Z,44.09
2023-04-27T17:08:56.224Z,44.08
2023-04-27T17:11:23.252Z,43.69
2023-04-27T17:13:50.137Z,43.33
2023-04-27T17:16:17.942Z,43.21
2023-04-27T17:18:45.695Z,42.87
2023-04-27T17:21:12.730Z,43.32
2023-04-27T17:23:41.413Z,43.43
2023-04-27T17:26:08.591Z,44.08
2023-04-27T17:28:35.282Z,43.14
2023-04-27T17:31:01.959Z,43.23
2023-04-27T17:33:28.489Z,44.19
2023-04-27T17:35:54.997Z,45.01
2023-04-27T17:38:21.517Z,45.09
2023-04-27T17:40:50.352Z,44.93
2023-04-27T17:43:16.849Z,44.93
2023-04-27T17:45:43.451Z,45.20
2023-04-27T17:48:10.086Z,46.11
2023-04-27T17:50:38.444Z,45.26
2023-04-27T17:53:04.887Z,44.79
2023-04-27T17:55:31.372Z,45.36
2023-04-27T17:57:57.986Z,45.44
2023-04-27T18:00:24.546Z,45.87
2023-04-27T18:02:51.398Z,45.97
2023-04-27T18:05:18.220Z,46.33
2023-04-27T18:07:46.223Z,46.76
2023-04-27T18:10:13.134Z,47.06
2023-04-27T18:12:39.678Z,47.48
2023-04-27T18:15:09.454Z,46.83
2023-04-27T18:17:36.517Z,47.46
2023-04-27T18:20:09.405Z,47.95
2023-04-27T18:22:36.277Z,47.55
2023-04-27T18:25:02.776Z,47.77
2023-04-27T18:27:31.751Z,47.49
2023-04-27T18:29:58.432Z,47.90
2023-04-27T18:32:25.005Z,47.60
2023-04-27T18:34:51.442Z,47.92
2023-04-27T18:37:17.955Z,48.16
2023-04-27T18:39:44.514Z,48.08
2023-04-27T18:42:11.069Z,47.54
2023-04-27T18:44:37.879Z,48.36
2023-04-27T18:47:04.562Z,48.20
2023-04-27T18:49:31.151Z,48.93
2023-04-27T18:51:57.702Z,48.42
2023-04-27T18:54:24.261Z,48.66
2023-04-27T18:56:53.054Z,49.04
2023-04-27T18:59:20.352Z,48.72
2023-04-27T19:01:47.152Z,50.38
2023-04-27T19:04:14.530Z,51.14
2023-04-27T19:06:41.311Z,50.04
2023-04-27T19:09:09.213Z,50.37
2023-04-27T19:11:35.984Z,51.01
2023-04-27T19:14:02.624Z,50.66
2023-04-27T19:16:29.148Z,50.85
2023-04-27T19:18:55.958Z,51.45
2023-04-27T19:21:22.574Z,51.12
2023-04-27T19:23:49.217Z,51.11
2023-04-27T19:26:16.094Z,51.07
2023-04-27T19:28:42.635Z,51.70
2023-04-27T19:31:10.435Z,51.17
2023-04-27T19:33:37.129Z,51.15
2023-04-27T19:36:04.024Z,50.84
2023-04-27T19:38:33.335Z,50.56
2023-04-27T19:41:00.140Z,51.57
2023-04-27T19:43:26.815Z,51.07
2023-04-27T19:45:53.290Z,52.08
2023-04-27T19:48:19.787Z,51.79
2023-04-27T19:50:46.308Z,51.30
2023-04-27T19:53:12.851Z,51.70
2023-04-27T19:55:40.542Z,51.27
2023-04-27T19:58:07.385Z,51.53
2023-04-27T20:00:34.250Z,51.63
2023-04-27T20:03:01.223Z,51.65
2023-04-27T20:05:28.219Z,51.58
2023-04-27T20:07:54.991Z,52.04
2023-04-27T20:10:21.880Z,52.27
2023-04-27T20:12:56.809Z,51.94
2023-04-27T20:15:24.570Z,51.12
2023-04-27T20:17:52.130Z,51.86
2023-04-27T20:20:19.224Z,51.62
2023-04-27T20:22:46.013Z,51.13
2023-04-27T20:25:14.616Z,51.90
2023-04-27T20:27:41.818Z,51.46
2023-04-27T20:30:09.067Z,50.86
2023-04-27T20:32:41.472Z,51.11
2023-04-27T20:35:11.224Z,51.11
2023-04-27T20:37:38.697Z,50.79
2023-04-27T20:40:06.249Z,52.36
2023-04-27T20:42:32.866Z,51.68
2023-04-27T20:44:59.454Z,51.43
2023-04-27T20:47:26.101Z,51.57
2023-04-27T20:49:53.471Z,52.61
2023-04-27T20:52:20.009Z,51.84
2023-04-27T20:54:46.578Z,52.57
2023-04-27T20:57:14.416Z,52.57
2023-04-27T20:59:41.569Z,52.59
2023-04-27T21:02:08.463Z,51.90
2023-04-27T21:04:35.059Z,52.49
2023-04-27T21:07:01.865Z,52.47
2023-04-27T21:09:28.364Z,52.10
2023-04-27T21:11:54.815Z,53.09
2023-04-27T21:14:21.429Z,53.68
2023-04-27T21:16:48.011Z,53.56
2023-04-27T21:19:16.572Z,53.49
2023-04-27T21:21:43.241Z,53.59
2023-04-27T21:24:09.781Z,53.90
2023-04-27T21:26:36.331Z,54.14
2023-04-27T21:29:05.427Z,54.08
2023-04-27T21:31:33.023Z,54.52
2023-04-27T21:33:59.741Z,53.75
2023-04-27T21:36:26.240Z,53.99
2023-04-27T21:38:52.704Z,54.38
2023-04-27T21:41:19.221Z,54.32
2023-04-27T21:43:46.146Z,54.08
2023-04-27T21:46:12.668Z,54.16
2023-04-27T21:48:39.300Z,54.68
2023-04-27T21:51:05.968Z,55.49
2023-04-27T21:53:32.622Z,54.27
2023-04-27T21:55:59.642Z,54.10
2023-04-27T21:58:26.294Z,55.20
2023-04-27T22:00:52.806Z,55.64
2023-04-27T22:03:19.671Z,55.74
2023-04-27T22:05:48.832Z,54.55
2023-04-27T22:08:17.304Z,54.96
2023-04-27T22:10:45.353Z,55.51
2023-04-27T22:15:41.676Z,56.49
2023-04-27T22:18:08.260Z,56.79
2023-04-27T22:20:35.090Z,56.04
2023-04-27T22:23:01.809Z,56.92
2023-04-27T22:25:28.483Z,56.29
2023-04-27T22:27:55.028Z,56.53
2023-04-27T22:30:21.497Z,56.56
2023-04-27T22:32:48.112Z,57.10
2023-04-27T22:35:25.666Z,56.91
2023-04-27T22:37:57.939Z,57.82
2023-04-27T22:40:24.727Z,57.13
2023-04-27T22:42:51.862Z,57.23
2023-04-27T22:45:18.442Z,57.38
2023-04-27T22:47:45.868Z,57.17
2023-04-27T22:50:13.220Z,57.35
2023-04-27T22:52:42.257Z,57.63
2023-04-27T22:55:11.157Z,57.21
2023-04-27T22:57:39.017Z,57.57
2023-04-27T23:00:07.388Z,57.36
2023-04-27T23:02:33.994Z,57.53
2023-04-27T23:05:00.920Z,57.70
2023-04-27T23:07:28.560Z,57.63
2023-04-27T23:09:55.892Z,58.23
2023-04-27T23:12:22.428Z,57.40
2023-04-27T23:14:49.019Z,57.74
2023-04-27T23:17:16.064Z,57.51
2023-04-27T23:19:42.647Z,57.82
2023-04-27T23:22:09.185Z,58.16
2023-04-27T23:24:35.788Z,58.50
2023-04-27T23:27:02.346Z,58.98
2023-04-27T23:29:30.800Z,58.45
2023-04-27T23:32:04.650Z,58.65
2023-04-27T23:34:33.974Z,59.43
2023-04-27T23:37:00.776Z,58.84
2023-04-27T23:39:27.967Z,58.61
2023-04-27T23:41:54.615Z,58.46
2023-04-27T23:44:21.477Z,58.81
2023-04-27T23:46:48.061Z,58.22
2023-04-27T23:49:14.707Z,58.27
2023-04-27T23:51:41.378Z,58.61
2023-04-27T23:54:07.891Z,58.33
2023-04-27T23:56:34.655Z,59.42
2023-04-27T23:59:01.106Z,58.65
